Time;durP1;ratioP1;P1;durP2;ratioP2;P2;SDS_P1;SDS_P2;PMS_P1;PMS_P2;Temp;Humidity;BMP_temperature;BMP_pressure;BME280_temperature;BME280_humidity;BME280_pressure;Samples;Min_cycle;Max_cycle;Signal;HPM_P1;HPM_P2
2024/03/31 00:01:13;;;;;;;3.30;3.10;;;16.60;78.80;;;;;;4190228;28;20156;-40
2024/03/31 00:03:54;;;;;;;3.35;3.15;;;16.60;78.90;;;;;;4187014;28;20094;-40
2024/03/31 00:06:33;;;;;;;3.75;3.45;;;16.60;78.80;;;;;;4187024;28;20054;-40
2024/03/31 00:09:13;;;;;;;3.50;3.20;;;16.60;78.90;;;;;;4191745;28;20055;-40
2024/03/31 00:11:54;;;;;;;3.97;3.65;;;16.60;78.90;;;;;;4203724;28;20079;-41
2024/03/31 00:14:34;;;;;;;3.88;3.33;;;16.50;78.90;;;;;;4197256;28;20050;-41
2024/03/31 00:17:13;;;;;;;4.05;3.70;;;16.60;79.00;;;;;;4197176;28;20125;-41
2024/03/31 00:19:54;;;;;;;3.70;3.50;;;16.50;79.00;;;;;;4186557;28;20099;-41
2024/03/31 00:22:33;;;;;;;4.55;4.15;;;16.50;78.80;;;;;;4202856;28;20101;-41
2024/03/31 00:25:13;;;;;;;3.78;3.47;;;16.50;79.80;;;;;;4203060;28;20083;-41
2024/03/31 00:27:52;;;;;;;3.65;3.45;;;16.60;79.00;;;;;;4203496;28;20482;-43
2024/03/31 00:30:32;;;;;;;3.45;3.25;;;16.50;79.00;;;;;;4190751;28;20101;-44
2024/03/31 00:33:11;;;;;;;3.83;3.50;;;16.50;78.90;;;;;;4191310;28;20054;-43
2024/03/31 00:35:56;;;;;;;4.22;3.83;;;16.50;78.90;;;;;;4191379;28;20496;-43
2024/03/31 00:38:35;;;;;;;3.25;3.05;;;16.50;78.80;;;;;;4202812;28;20078;-41
2024/03/31 00:41:15;;;;;;;3.58;3.30;;;16.50;79.00;;;;;;4203102;28;20054;-41
2024/03/31 00:43:54;;;;;;;3.70;3.40;;;16.50;79.00;;;;;;4180871;28;20063;-41
2024/03/31 00:46:34;;;;;;;3.75;3.45;;;16.50;79.10;;;;;;4186227;28;20109;-41
2024/03/31 00:49:13;;;;;;;3.67;3.38;;;16.50;79.10;;;;;;4174990;28;20106;-41
2024/03/31 00:51:54;;;;;;;4.30;3.90;;;16.50;79.00;;;;;;4186152;28;20056;-41
2024/03/31 00:54:37;;;;;;;;;;;16.50;79.00;;;;;;4186946;28;20152;-41
2024/03/31 00:57:17;;;;;;;4.15;3.50;;;16.50;79.00;;;;;;4187957;28;19974;-41
2024/03/31 00:59:56;;;;;;;4.05;3.42;;;16.40;79.60;;;;;;4191600;28;20054;-40
2024/03/31 01:02:36;;;;;;;3.38;3.17;;;16.40;79.40;;;;;;4188220;28;20067;-40
2024/03/31 01:05:15;;;;;;;3.65;3.35;;;16.40;79.30;;;;;;4186339;28;20136;-40
2024/03/31 01:07:57;;;;;;;3.67;3.38;;;16.40;79.20;;;;;;4186185;28;20074;-41
2024/03/31 01:10:37;;;;;;;3.80;3.60;;;16.40;79.20;;;;;;4174442;28;20083;-43
2024/03/31 01:13:17;;;;;;;4.45;3.28;;;16.40;79.20;;;;;;4189247;28;20124;-42
2024/03/31 01:15:57;;;;;;;3.83;3.43;;;16.40;79.20;;;;;;4190983;28;20102;-41
2024/03/31 01:18:37;;;;;;;3.17;2.97;;;16.40;79.30;;;;;;4186458;28;20058;-41
2024/03/31 01:21:17;;;;;;;;;;;16.40;79.30;;;;;;4175658;28;20128;-41
2024/03/31 01:24:00;;;;;;;3.03;2.47;;;16.40;79.30;;;;;;4202789;28;19935;-44
2024/03/31 01:26:39;;;;;;;3.05;2.85;;;16.30;79.80;;;;;;4189915;28;20055;-42
2024/03/31 01:29:19;;;;;;;3.63;3.40;;;16.30;79.40;;;;;;4202979;28;20111;-41
2024/03/31 01:31:58;;;;;;;3.80;3.50;;;16.30;79.20;;;;;;4191055;28;20371;-41
2024/03/31 01:34:39;;;;;;;3.10;2.90;;;16.30;79.00;;;;;;4197333;28;20058;-41
2024/03/31 01:37:18;;;;;;;4.30;3.90;;;16.30;78.80;;;;;;4191780;28;20074;-40
2024/03/31 01:39:59;;;;;;;5.05;4.40;;;16.30;78.70;;;;;;4201384;28;20498;-40
2024/03/31 01:42:39;;;;;;;4.85;4.45;;;16.30;78.50;;;;;;4189089;28;20090;-40
2024/03/31 01:45:19;;;;;;;4.57;4.28;;;16.30;78.30;;;;;;4174295;28;20121;-40
2024/03/31 01:47:58;;;;;;;5.50;5.10;;;16.20;78.40;;;;;;4177364;28;20102;-40
2024/03/31 01:50:38;;;;;;;5.07;4.68;;;16.20;78.40;;;;;;4189168;28;20059;-40
2024/03/31 01:53:19;;;;;;;4.93;4.55;;;16.20;78.40;;;;;;4178089;28;20123;-39
2024/03/31 01:56:00;;;;;;;5.28;4.63;;;16.20;78.50;;;;;;4189138;28;20071;-40
2024/03/31 01:58:40;;;;;;;5.38;4.97;;;16.20;78.50;;;;;;4190366;28;20043;-41
2024/03/31 02:01:20;;;;;;;5.18;4.68;;;16.20;78.60;;;;;;4177527;28;20093;-40
2024/03/31 02:03:59;;;;;;;5.00;4.60;;;16.20;78.40;;;;;;4177441;28;20050;-40
2024/03/31 02:06:39;;;;;;;5.15;4.65;;;16.20;78.30;;;;;;4178080;28;20052;-40
2024/03/31 02:09:18;;;;;;;5.20;4.70;;;16.20;78.60;;;;;;4177204;28;20059;-40
2024/03/31 02:11:59;;;;;;;5.85;5.25;;;16.10;78.70;;;;;;4166192;28;20046;-40
2024/03/31 02:14:39;;;;;;;5.00;4.60;;;16.10;78.80;;;;;;4175136;28;20063;-40
2024/03/31 02:17:19;;;;;;;5.70;5.20;;;16.10;79.00;;;;;;4177155;28;20060;-40
2024/03/31 02:19:58;;;;;;;4.40;4.10;;;16.10;79.20;;;;;;4188735;28;20411;-40
2024/03/31 02:22:38;;;;;;;4.60;4.22;;;16.10;79.40;;;;;;4176707;28;20051;-40
2024/03/31 02:25:17;;;;;;;4.85;4.35;;;16.10;79.50;;;;;;4173644;28;20530;-40
2024/03/31 02:27:59;;;;;;;4.75;4.35;;;16.10;79.60;;;;;;4177448;28;20101;-40
2024/03/31 02:30:38;;;;;;;4.40;4.10;;;16.10;79.60;;;;;;4194193;28;20422;-40
2024/03/31 02:33:18;;;;;;;5.10;4.68;;;16.10;79.70;;;;;;4191912;28;20125;-40
2024/03/31 02:35:57;;;;;;;4.40;4.00;;;16.10;79.60;;;;;;4205401;28;20436;-40
2024/03/31 02:38:37;;;;;;;4.35;3.95;;;16.10;79.60;;;;;;4194087;28;20067;-40
2024/03/31 02:41:17;;;;;;;4.38;3.92;;;16.10;79.60;;;;;;4193247;28;20135;-40
2024/03/31 02:43:58;;;;;;;3.88;3.67;;;16.10;80.40;;;;;;4193471;28;20092;-40
2024/03/31 02:46:37;;;;;;;;;;;16.10;79.50;;;;;;4191802;28;20058;-40
2024/03/31 02:49:17;;;;;;;3.40;3.20;;;16.00;79.50;;;;;;4205633;28;19968;-40
2024/03/31 02:51:56;;;;;;;3.40;3.20;;;16.10;80.40;;;;;;4193278;28;20109;-40
2024/03/31 02:54:36;;;;;;;3.50;3.20;;;16.00;80.10;;;;;;4193123;28;20125;-41
2024/03/31 02:57:16;;;;;;;3.10;2.90;;;16.00;79.90;;;;;;4193473;28;20046;-41
2024/03/31 02:59:56;;;;;;;7.07;3.13;;;16.00;79.90;;;;;;4171815;28;20122;-42
2024/03/31 03:02:37;;;;;;;11.67;2.63;;;16.00;79.70;;;;;;4177164;28;20063;-43
2024/03/31 03:05:16;;;;;;;2.20;1.92;;;16.00;79.70;;;;;;4165191;28;20297;-41
2024/03/31 03:07:56;;;;;;;7.38;1.85;;;16.00;79.70;;;;;;4172769;28;20075;-41
2024/03/31 03:10:35;;;;;;;7.82;1.88;;;16.00;79.60;;;;;;4166834;28;20155;-41
2024/03/31 03:13:15;;;;;;;11.40;2.20;;;16.00;79.70;;;;;;4171067;28;20052;-41
2024/03/31 03:15:55;;;;;;;5.22;1.63;;;16.00;79.70;;;;;;4171653;28;20055;-41
2024/03/31 03:18:35;;;;;;;12.93;1.98;;;16.00;79.70;;;;;;4176264;28;20094;-41
2024/03/31 03:21:14;;;;;;;14.10;2.10;;;15.90;79.60;;;;;;4176075;28;20506;-41
2024/03/31 03:23:54;;;;;;;13.65;1.98;;;16.00;79.70;;;;;;4187532;28;20138;-43
2024/03/31 03:26:34;;;;;;;16.50;2.20;;;16.00;79.60;;;;;;4176309;28;20055;-41
2024/03/31 03:29:13;;;;;;;7.97;2.00;;;15.90;79.80;;;;;;4187435;28;20127;-41
2024/03/31 03:31:54;;;;;;;17.63;2.53;;;15.90;79.70;;;;;;4176873;28;20135;-41
2024/03/31 03:34:34;;;;;;;12.13;3.22;;;15.90;79.70;;;;;;4184345;28;20047;-41
2024/03/31 03:37:15;;;;;;;11.88;3.53;;;15.90;79.80;;;;;;4179458;28;20087;-43
2024/03/31 03:39:55;;;;;;;14.23;3.08;;;15.90;79.80;;;;;;4175016;28;20708;-41
2024/03/31 03:42:37;;;;;;;18.88;3.63;;;15.90;79.80;;;;;;4186883;28;20086;-41
2024/03/31 03:45:17;;;;;;;15.77;3.88;;;15.90;79.80;;;;;;4175695;28;20055;-41
2024/03/31 03:47:57;;;;;;;9.90;4.15;;;15.90;79.80;;;;;;4187026;28;20148;-41
2024/03/31 03:50:38;;;;;;;16.45;3.92;;;15.80;79.40;;;;;;4175319;28;20113;-41
2024/03/31 03:53:17;;;;;;;20.30;3.90;;;15.80;80.50;;;;;;4199487;28;20449;-43
2024/03/31 03:55:57;;;;;;;10.45;4.00;;;15.80;79.80;;;;;;4180129;28;20105;-42
2024/03/31 03:58:36;;;;;;;9.50;4.05;;;15.80;79.90;;;;;;4185834;28;20060;-39
2024/03/31 04:01:16;;;;;;;11.77;4.55;;;15.80;80.00;;;;;;4175207;28;20126;-40
2024/03/31 04:03:56;;;;;;;6.13;4.60;;;15.80;80.10;;;;;;4197216;28;20051;-40
2024/03/31 04:06:36;;;;;;;5.15;4.65;;;15.80;80.10;;;;;;4203042;28;20065;-39
2024/03/31 04:09:15;;;;;;;5.60;4.68;;;15.80;79.90;;;;;;4199962;27;20128;-40
2024/03/31 04:11:55;;;;;;;5.35;4.85;;;15.80;80.00;;;;;;4191469;28;20051;-41
2024/03/31 04:14:34;;;;;;;5.38;4.95;;;15.80;80.00;;;;;;4191961;28;20093;-42
2024/03/31 04:17:14;;;;;;;6.00;5.45;;;15.80;80.10;;;;;;4191575;28;20505;-43
2024/03/31 04:19:55;;;;;;;5.55;5.05;;;15.80;80.20;;;;;;4188488;28;20097;-43
2024/03/31 04:22:35;;;;;;;5.85;5.25;;;15.80;80.30;;;;;;4191151;28;20050;-42
2024/03/31 04:25:14;;;;;;;6.20;5.60;;;15.80;80.30;;;;;;4189497;28;20054;-43
2024/03/31 04:27:54;;;;;;;5.63;5.13;;;15.80;80.50;;;;;;4190799;28;20532;-41
2024/03/31 04:30:41;;;;;;;5.40;4.90;;;15.80;80.50;;;;;;4182561;28;20051;-41
2024/03/31 04:33:19;;;;;;;5.43;4.93;;;15.80;80.30;;;;;;4203147;28;20093;-41
2024/03/31 04:36:01;;;;;;;6.20;5.70;;;15.80;80.60;;;;;;4191533;28;20054;-41
2024/03/31 04:38:41;;;;;;;6.15;5.38;;;15.70;80.40;;;;;;4191755;28;20050;-43
2024/03/31 04:41:21;;;;;;;6.07;5.47;;;15.80;80.40;;;;;;4185802;28;20182;-41
2024/03/31 04:44:00;;;;;;;6.93;5.75;;;15.70;80.30;;;;;;4175438;28;20548;-42
2024/03/31 04:46:40;;;;;;;6.18;5.38;;;15.80;80.30;;;;;;4167615;28;20178;-41
2024/03/31 04:49:19;;;;;;;5.65;5.05;;;15.70;80.10;;;;;;4191640;28;20054;-41
2024/03/31 04:52:02;;;;;;;5.45;4.88;;;15.80;79.80;;;;;;4191026;28;20043;-40
2024/03/31 04:54:42;;;;;;;5.72;4.88;;;15.70;79.40;;;;;;4192134;28;20101;-40
2024/03/31 04:57:23;;;;;;;4.82;4.43;;;15.70;79.60;;;;;;4191276;28;20109;-40
2024/03/31 05:00:03;;;;;;;4.78;4.38;;;15.70;79.40;;;;;;4172730;28;20063;-40
2024/03/31 05:02:47;;;;;;;5.70;5.03;;;15.70;79.60;;;;;;4185975;28;20486;-40
2024/03/31 05:05:25;;;;;;;5.25;4.75;;;15.70;79.60;;;;;;4174850;28;20101;-39
2024/03/31 05:08:07;;;;;;;4.93;4.60;;;15.70;79.80;;;;;;4186626;28;20477;-39
2024/03/31 05:10:52;;;;;;;;;;;15.70;79.10;;;;;;4188754;28;20059;-40
2024/03/31 05:13:32;;;;;;;4.95;3.78;;;15.70;79.10;;;;;;4179745;28;19930;-40
2024/03/31 05:16:16;;;;;;;4.45;4.15;;;15.60;80.10;;;;;;4175090;28;20390;-40
2024/03/31 05:18:56;;;;;;;4.47;4.07;;;15.60;80.00;;;;;;4174773;28;20071;-40
2024/03/31 05:21:35;;;;;;;4.93;4.50;;;15.60;80.00;;;;;;4185519;28;20060;-40
2024/03/31 05:24:17;;;;;;;4.50;4.20;;;15.60;79.90;;;;;;4185577;28;20110;-41
2024/03/31 05:26:56;;;;;;;4.07;3.78;;;15.60;79.60;;;;;;4173927;28;20071;-42
2024/03/31 05:29:36;;;;;;;5.28;4.85;;;15.60;79.60;;;;;;4174206;28;20097;-43
2024/03/31 05:32:15;;;;;;;3.53;3.33;;;15.60;79.80;;;;;;4199638;28;20101;-43
2024/03/31 05:35:02;;;;;;;4.50;4.10;;;15.60;79.80;;;;;;4202599;28;20158;-42
2024/03/31 05:37:42;;;;;;;5.20;4.05;;;15.60;79.60;;;;;;4190272;28;20051;-41
2024/03/31 05:40:23;;;;;;;5.70;5.13;;;15.60;79.60;;;;;;4189414;28;20069;-43
2024/03/31 05:43:03;;;;;;;5.03;4.07;;;15.50;79.20;;;;;;4201632;28;20051;-41
2024/03/31 05:45:43;;;;;;;4.78;4.43;;;15.50;79.20;;;;;;4178670;28;20130;-41
2024/03/31 05:48:22;;;;;;;4.97;4.55;;;15.50;79.40;;;;;;4177115;28;20571;-44
2024/03/31 05:51:05;;;;;;;8.15;4.80;;;15.50;79.70;;;;;;4174182;28;20060;-41
2024/03/31 05:53:47;;;;;;;5.85;5.35;;;15.50;79.60;;;;;;4185654;28;20154;-40
2024/03/31 05:56:29;;;;;;;5.72;5.22;;;15.50;79.70;;;;;;4174304;28;20052;-41
2024/03/31 05:59:08;;;;;;;;;;;15.60;78.50;;;;;;4185547;28;20571;-41
2024/03/31 06:01:50;;;;;;;6.57;4.40;;;15.60;78.30;;;;;;4200001;28;20444;-41
2024/03/31 06:04:31;;;;;;;5.10;4.70;;;15.50;78.90;;;;;;4173841;28;20055;-41
2024/03/31 06:07:11;;;;;;;5.25;4.78;;;15.50;77.80;;;;;;4196809;28;20055;-41
2024/03/31 06:09:51;;;;;;;4.50;4.10;;;15.50;78.00;;;;;;4189942;28;20391;-41
2024/03/31 06:12:32;;;;;;;5.07;4.57;;;15.50;78.30;;;;;;4202085;28;20533;-41
2024/03/31 06:15:12;;;;;;;5.63;5.10;;;15.50;78.70;;;;;;4190279;28;20597;-41
2024/03/31 06:17:52;;;;;;;6.30;5.70;;;15.50;79.00;;;;;;4178180;28;20047;-41
2024/03/31 06:20:30;;;;;;;5.82;5.32;;;15.50;78.90;;;;;;4201877;28;20131;-41
2024/03/31 06:23:10;;;;;;;5.28;4.78;;;15.50;78.30;;;;;;4172813;28;20101;-43
2024/03/31 06:25:56;;;;;;;4.97;4.57;;;15.50;77.90;;;;;;4173773;28;20071;-41
2024/03/31 06:28:38;;;;;;;4.68;4.25;;;15.50;76.30;;;;;;4186255;28;20486;-41
2024/03/31 06:31:17;;;;;;;4.78;4.40;;;15.40;76.80;;;;;;4201356;28;20055;-41
2024/03/31 06:34:01;;;;;;;4.47;4.18;;;15.40;77.20;;;;;;4179348;28;20134;-41
2024/03/31 06:36:41;;;;;;;4.55;4.25;;;15.40;75.90;;;;;;4176667;28;20056;-41
2024/03/31 06:39:20;;;;;;;4.65;4.25;;;15.40;75.70;;;;;;4176909;28;20067;-41
2024/03/31 06:42:00;;;;;;;4.30;4.10;;;15.40;75.40;;;;;;4178592;28;20101;-43
2024/03/31 06:44:41;;;;;;;4.18;3.88;;;15.40;74.30;;;;;;4175398;28;20079;-41
2024/03/31 06:47:21;;;;;;;4.50;4.20;;;15.40;74.70;;;;;;4205632;28;20063;-41
2024/03/31 06:50:00;;;;;;;5.97;4.75;;;15.30;75.10;;;;;;4204540;28;20059;-41
2024/03/31 06:52:40;;;;;;;5.38;4.70;;;15.30;75.60;;;;;;4193480;28;20163;-41
2024/03/31 06:55:20;;;;;;;4.68;4.38;;;15.30;74.60;;;;;;4193080;28;20189;-41
2024/03/31 06:58:00;;;;;;;4.88;4.57;;;15.30;74.40;;;;;;4176044;28;20075;-43
2024/03/31 07:00:40;;;;;;;5.70;5.20;;;15.30;74.90;;;;;;4165555;28;20178;-41
2024/03/31 07:03:20;;;;;;;5.47;5.00;;;15.30;74.30;;;;;;4195997;28;20125;-41
2024/03/31 07:06:00;;;;;;;5.07;4.78;;;15.30;73.90;;;;;;4175950;28;20580;-41
2024/03/31 07:08:40;;;;;;;5.70;5.20;;;15.20;74.60;;;;;;4187546;28;20083;-41
2024/03/31 07:11:19;;;;;;;5.07;4.78;;;15.20;75.20;;;;;;4186467;28;20059;-41
2024/03/31 07:13:59;;;;;;;5.30;4.90;;;15.20;75.50;;;;;;4193256;28;20489;-43
2024/03/31 07:16:41;;;;;;;5.00;4.65;;;15.20;75.00;;;;;;4181947;28;20502;-42
2024/03/31 07:19:20;;;;;;;;;;;15.20;74.70;;;;;;4176668;28;20095;-41
2024/03/31 07:22:00;;;;;;;4.57;4.28;;;15.20;74.90;;;;;;4181496;28;19994;-41
2024/03/31 07:24:39;;;;;;;5.30;4.80;;;15.20;75.90;;;;;;4192370;28;20059;-41
2024/03/31 07:27:19;;;;;;;4.78;4.47;;;15.10;75.90;;;;;;4197657;28;20134;-43
2024/03/31 07:29:58;;;;;;;4.95;4.50;;;15.10;75.50;;;;;;4191527;28;20359;-41
2024/03/31 07:32:39;;;;;;;5.10;4.70;;;15.10;75.40;;;;;;4192121;28;20070;-41
2024/03/31 07:35:18;;;;;;;7.20;4.75;;;15.10;76.50;;;;;;4203119;28;20164;-41
2024/03/31 07:37:59;;;;;;;4.10;3.90;;;15.10;75.90;;;;;;4198622;28;20104;-43
2024/03/31 07:40:38;;;;;;;4.85;4.45;;;15.10;75.50;;;;;;4180318;28;20111;-41
2024/03/31 07:43:22;;;;;;;4.75;4.22;;;15.10;75.60;;;;;;4186204;28;20117;-41
2024/03/31 07:46:00;;;;;;;4.72;4.40;;;15.10;75.40;;;;;;4188341;28;20055;-41
2024/03/31 07:48:42;;;;;;;4.00;3.80;;;15.10;75.50;;;;;;4192158;28;20411;-41
2024/03/31 07:51:21;;;;;;;;;;;15.10;75.50;;;;;;4188710;28;20047;-41
2024/03/31 07:54:02;;;;;;;4.82;4.43;;;15.10;75.50;;;;;;4201446;28;19927;-41
2024/03/31 07:56:40;;;;;;;4.75;4.35;;;15.10;75.10;;;;;;4188912;28;20108;-41
2024/03/31 07:59:21;;;;;;;5.40;5.00;;;15.10;74.50;;;;;;4186809;28;20063;-41
2024/03/31 08:02:01;;;;;;;5.28;4.88;;;15.10;75.30;;;;;;4195232;28;20144;-40
2024/03/31 08:04:43;;;;;;;5.80;5.32;;;15.10;74.80;;;;;;4193257;28;20063;-39
2024/03/31 08:07:23;;;;;;;5.10;4.72;;;15.10;75.40;;;;;;4169739;28;20048;-40
2024/03/31 08:10:03;;;;;;;5.93;5.32;;;15.10;75.60;;;;;;4170212;28;20380;-40
2024/03/31 08:12:43;;;;;;;5.30;4.97;;;15.10;75.60;;;;;;4172719;28;20056;-41
2024/03/31 08:15:22;;;;;;;6.57;6.13;;;15.10;75.20;;;;;;4175970;28;20052;-41
2024/03/31 08:18:01;;;;;;;6.20;5.78;;;15.00;75.00;;;;;;4170133;28;20481;-41
2024/03/31 08:20:41;;;;;;;6.53;6.03;;;15.00;74.80;;;;;;4170766;28;20056;-42
2024/03/31 08:23:22;;;;;;;7.00;6.50;;;15.00;74.60;;;;;;4170129;28;20450;-41
2024/03/31 08:26:01;;;;;;;7.93;7.20;;;15.00;74.30;;;;;;4169939;28;20092;-42
2024/03/31 08:28:41;;;;;;;7.60;6.90;;;15.10;74.10;;;;;;4180488;28;20067;-40
2024/03/31 08:31:21;;;;;;;7.60;7.00;;;15.10;73.80;;;;;;4188756;28;20531;-40
2024/03/31 08:34:02;;;;;;;7.95;7.13;;;15.10;74.30;;;;;;4184841;28;20071;-40
2024/03/31 08:36:42;;;;;;;8.63;7.82;;;15.10;74.80;;;;;;4186391;28;20410;-41
2024/03/31 08:39:22;;;;;;;9.05;8.15;;;15.10;74.70;;;;;;4186928;28;20394;-40
2024/03/31 08:42:13;;;;;;;9.27;8.38;;;15.10;74.90;;;;;;4203249;28;20120;-40
2024/03/31 08:44:56;;;;;;;8.80;7.85;;;15.10;75.30;;;;;;4186507;28;20166;-40
2024/03/31 08:47:36;;;;;;;10.10;8.30;;;15.10;74.90;;;;;;4186444;28;20063;-40
2024/03/31 08:50:17;;;;;;;9.55;8.30;;;15.10;75.60;;;;;;4186510;28;20411;-40
2024/03/31 08:52:58;;;;;;;10.40;8.48;;;15.10;77.90;;;;;;4170842;28;20051;-40
2024/03/31 08:55:39;;;;;;;10.07;8.13;;;15.40;79.10;;;;;;4182566;28;20062;-41
2024/03/31 08:58:19;;;;;;;8.50;7.63;;;15.80;76.50;;;;;;4201643;28;20077;-41
2024/03/31 09:00:59;;;;;;;8.52;7.82;;;16.30;72.50;;;;;;4200891;28;20050;-40
2024/03/31 09:03:39;;;;;;;8.60;7.33;;;16.80;71.70;;;;;;4201980;28;20168;-41
2024/03/31 09:06:19;;;;;;;7.63;6.93;;;17.30;70.40;;;;;;4202056;28;20339;-40
2024/03/31 09:09:02;;;;;;;8.90;8.20;;;17.80;68.90;;;;;;4203032;28;20050;-40
2024/03/31 09:11:42;;;;;;;8.15;7.47;;;18.20;66.10;;;;;;4203152;28;20051;-40
2024/03/31 09:14:21;;;;;;;8.07;7.40;;;18.60;64.80;;;;;;4202114;28;20097;-40
2024/03/31 09:17:01;;;;;;;7.30;6.60;;;18.90;65.00;;;;;;4189540;28;20828;-40
2024/03/31 09:19:41;;;;;;;7.22;6.53;;;19.00;64.70;;;;;;4185606;28;20059;-40
2024/03/31 09:22:20;;;;;;;7.85;7.15;;;19.10;63.60;;;;;;4185182;28;20051;-41
2024/03/31 09:25:02;;;;;;;7.43;6.82;;;19.10;62.40;;;;;;4185206;28;20067;-41
2024/03/31 09:27:41;;;;;;;7.85;6.97;;;19.10;62.70;;;;;;4191852;28;20132;-41
2024/03/31 09:30:24;;;;;;;7.03;6.43;;;19.00;62.90;;;;;;4202456;28;20078;-41
2024/03/31 09:33:04;;;;;;;7.13;6.47;;;19.00;63.00;;;;;;4200006;28;20051;-41
2024/03/31 09:35:46;;;;;;;7.22;6.72;;;19.00;63.10;;;;;;4202237;28;20051;-41
2024/03/31 09:38:25;;;;;;;7.05;6.50;;;19.00;62.50;;;;;;4202291;28;20438;-41
2024/03/31 09:41:06;;;;;;;7.13;6.55;;;19.00;63.00;;;;;;4202037;28;20548;-41
2024/03/31 09:43:46;;;;;;;8.00;7.25;;;19.00;62.50;;;;;;4202234;28;20050;-41
2024/03/31 09:46:27;;;;;;;8.70;7.90;;;18.90;62.30;;;;;;4189246;27;20063;-41
2024/03/31 09:49:10;;;;;;;8.73;7.47;;;18.80;62.20;;;;;;4199174;27;20058;-41
2024/03/31 09:51:54;;;;;;;8.07;7.38;;;18.70;62.80;;;;;;4202604;28;20101;-41
2024/03/31 09:54:42;;;;;;;7.45;6.80;;;18.60;63.00;;;;;;4202153;27;20135;-41
2024/03/31 09:57:28;;;;;;;7.70;7.13;;;18.50;62.90;;;;;;4200424;28;20370;-41
2024/03/31 10:00:10;;;;;;;7.30;6.70;;;18.40;63.20;;;;;;4202545;28;20043;-41
2024/03/31 10:02:52;;;;;;;6.45;5.85;;;18.40;63.30;;;;;;4202190;28;20055;-42
2024/03/31 10:05:37;;;;;;;7.70;6.93;;;18.40;63.20;;;;;;4200808;27;20043;-41
2024/03/31 10:08:17;;;;;;;7.22;6.63;;;18.40;64.30;;;;;;4192404;28;20075;-41
2024/03/31 10:10:58;;;;;;;7.13;6.43;;;18.40;65.00;;;;;;4205637;28;20062;-41
2024/03/31 10:13:39;;;;;;;6.38;5.88;;;18.30;64.80;;;;;;4193898;28;20047;-39
2024/03/31 10:16:19;;;;;;;;;;;18.40;63.80;;;;;;4205697;28;20577;-40
2024/03/31 10:19:00;;;;;;;5.65;5.15;;;18.50;64.10;;;;;;4205022;28;19938;-39
2024/03/31 10:21:41;;;;;;;7.80;7.10;;;18.60;63.90;;;;;;4203332;28;20386;-40
2024/03/31 10:24:21;;;;;;;5.65;5.25;;;18.60;62.80;;;;;;4206025;28;20078;-40
2024/03/31 10:27:02;;;;;;;5.68;5.18;;;18.60;62.80;;;;;;4189101;28;20806;-39
2024/03/31 10:29:44;;;;;;;5.57;5.13;;;18.60;62.60;;;;;;4188881;28;20051;-42
2024/03/31 10:32:24;;;;;;;5.75;5.35;;;18.60;62.00;;;;;;4188809;28;20085;-39
2024/03/31 10:35:05;;;;;;;4.85;4.45;;;18.70;62.80;;;;;;4200431;28;20054;-40
2024/03/31 10:37:45;;;;;;;5.35;4.88;;;18.70;62.80;;;;;;4204273;28;20497;-40
2024/03/31 10:40:25;;;;;;;5.85;5.25;;;18.70;63.80;;;;;;4187575;28;20168;-40
2024/03/31 10:43:07;;;;;;;5.75;5.10;;;18.70;63.40;;;;;;4197161;28;20125;-41
2024/03/31 10:45:47;;;;;;;5.63;5.22;;;18.70;63.40;;;;;;4203433;28;20063;-39
2024/03/31 10:48:28;;;;;;;4.63;4.30;;;18.70;63.70;;;;;;4205528;28;20094;-39
2024/03/31 10:51:08;;;;;;;5.95;5.45;;;18.70;63.10;;;;;;4205024;28;20146;-40
2024/03/31 10:53:48;;;;;;;5.72;5.13;;;18.80;63.70;;;;;;4204712;28;20466;-39
2024/03/31 10:56:28;;;;;;;4.90;4.60;;;18.80;64.20;;;;;;4188368;28;20114;-40
2024/03/31 10:59:08;;;;;;;5.80;5.30;;;18.80;63.90;;;;;;4185815;28;20822;-40
2024/03/31 11:01:50;;;;;;;5.75;5.15;;;18.80;64.50;;;;;;4186587;28;20075;-40
2024/03/31 11:04:30;;;;;;;5.75;5.35;;;18.80;64.80;;;;;;4188014;28;20779;-40
2024/03/31 11:07:12;;;;;;;5.72;5.32;;;18.80;64.50;;;;;;4187762;28;20131;-39
2024/03/31 11:09:52;;;;;;;5.90;5.40;;;18.70;64.70;;;;;;4176490;28;20134;-39
2024/03/31 11:12:35;;;;;;;6.10;5.60;;;18.80;65.00;;;;;;4186295;28;20047;-38
2024/03/31 11:15:15;;;;;;;6.00;5.50;;;18.90;64.00;;;;;;4175722;28;20066;-39
2024/03/31 11:17:57;;;;;;;6.30;5.80;;;18.90;64.40;;;;;;4187624;28;20398;-38
2024/03/31 11:20:42;;;;;;;7.85;6.28;;;18.90;64.40;;;;;;4186711;28;20083;-39
2024/03/31 11:23:23;;;;;;;5.85;5.25;;;18.90;64.10;;;;;;4187502;28;20131;-38
2024/03/31 11:26:03;;;;;;;6.72;6.20;;;19.00;65.10;;;;;;4187505;28;20048;-39
2024/03/31 11:28:43;;;;;;;7.38;6.88;;;19.00;64.60;;;;;;4203916;28;20127;-39
2024/03/31 11:31:22;;;;;;;5.45;5.07;;;19.00;64.70;;;;;;4204066;28;20080;-39
2024/03/31 11:34:06;;;;;;;6.65;6.07;;;18.90;64.90;;;;;;4203620;28;20052;-39
2024/03/31 11:36:45;;;;;;;6.20;5.60;;;19.00;64.80;;;;;;4204026;28;20051;-39
2024/03/31 11:39:25;;;;;;;7.22;6.63;;;18.90;64.70;;;;;;4203494;28;20105;-40
2024/03/31 11:42:05;;;;;;;6.70;6.10;;;18.90;64.40;;;;;;4203637;28;20116;-40
2024/03/31 11:44:46;;;;;;;6.80;6.18;;;18.90;64.60;;;;;;4190944;28;20060;-39
2024/03/31 11:47:25;;;;;;;6.63;6.03;;;18.90;65.00;;;;;;4187216;28;20398;-39
2024/03/31 11:50:08;;;;;;;6.80;6.30;;;18.90;65.50;;;;;;4186967;28;20402;-39
2024/03/31 11:52:47;;;;;;;6.95;6.35;;;18.80;65.50;;;;;;4186065;28;20064;-40
2024/03/31 11:55:28;;;;;;;6.47;5.88;;;18.70;65.50;;;;;;4186526;28;20051;-39
2024/03/31 11:58:08;;;;;;;8.05;6.50;;;18.80;65.70;;;;;;4187281;28;20093;-39
2024/03/31 12:00:50;;;;;;;7.53;6.93;;;18.80;65.90;;;;;;4188178;28;20078;-40
2024/03/31 12:03:29;;;;;;;7.30;6.70;;;18.90;65.80;;;;;;4186951;28;21151;-40
2024/03/31 12:06:11;;;;;;;6.95;6.38;;;18.90;64.80;;;;;;4186051;28;20067;-39
2024/03/31 12:08:51;;;;;;;6.88;6.22;;;18.90;65.10;;;;;;4186827;28;20094;-40
2024/03/31 12:11:31;;;;;;;7.35;6.60;;;19.00;65.00;;;;;;4175454;28;20445;-40
2024/03/31 12:14:10;;;;;;;7.60;6.90;;;19.10;64.90;;;;;;4194412;28;20809;-40
2024/03/31 12:16:52;;;;;;;7.18;6.50;;;19.10;64.80;;;;;;4189042;27;20046;-40
2024/03/31 12:19:31;;;;;;;7.10;6.50;;;19.20;64.00;;;;;;4203458;28;20050;-49
2024/03/31 12:22:12;;;;;;;7.00;6.35;;;19.20;64.30;;;;;;4204085;28;20089;-40
2024/03/31 12:24:51;;;;;;;;;;;19.10;64.50;;;;;;4192638;28;20547;-40
2024/03/31 12:27:32;;;;;;;7.18;6.53;;;19.10;64.80;;;;;;4203921;28;19942;-39
2024/03/31 12:30:12;;;;;;;9.40;7.75;;;19.10;65.00;;;;;;4202874;28;20059;-39
2024/03/31 12:32:52;;;;;;;10.10;6.95;;;19.10;64.90;;;;;;4203208;28;20054;-40
2024/03/31 12:35:31;;;;;;;8.10;6.55;;;19.10;64.80;;;;;;4203600;28;20494;-40
2024/03/31 12:38:13;;;;;;;7.70;6.90;;;19.10;65.00;;;;;;4203698;28;20054;-40
2024/03/31 12:40:53;;;;;;;7.90;6.85;;;19.00;64.90;;;;;;4201259;28;20054;-40
2024/03/31 12:43:33;;;;;;;7.90;7.20;;;19.00;65.00;;;;;;4191898;28;20079;-39
2024/03/31 12:46:14;;;;;;;7.63;6.93;;;19.00;65.10;;;;;;4191223;28;20494;-39
2024/03/31 12:48:54;;;;;;;8.90;8.00;;;19.00;65.40;;;;;;4200755;28;20066;-39
2024/03/31 12:51:33;;;;;;;7.85;7.15;;;19.00;65.50;;;;;;4202837;28;20505;-41
2024/03/31 12:54:18;;;;;;;8.18;7.38;;;19.10;65.70;;;;;;4203107;28;20097;-46
2024/03/31 12:56:57;;;;;;;8.30;7.03;;;19.00;65.70;;;;;;4202920;28;20051;-40
2024/03/31 12:59:39;;;;;;;8.88;7.97;;;19.10;66.10;;;;;;4190655;28;20054;-40
2024/03/31 13:02:18;;;;;;;9.50;8.60;;;19.00;66.10;;;;;;4201738;28;20050;-40
2024/03/31 13:04:58;;;;;;;9.98;8.60;;;19.00;65.60;;;;;;4200689;28;20051;-40
2024/03/31 13:07:38;;;;;;;8.85;8.05;;;19.00;65.90;;;;;;4185537;28;20434;-40
2024/03/31 13:10:20;;;;;;;11.00;8.52;;;19.00;66.70;;;;;;4185366;28;20476;-40
2024/03/31 13:13:01;;;;;;;8.80;7.93;;;19.00;65.80;;;;;;4185903;28;20047;-40
2024/03/31 13:15:42;;;;;;;9.48;8.55;;;19.00;65.80;;;;;;4186215;28;20076;-40
2024/03/31 13:18:21;;;;;;;9.88;8.38;;;19.00;66.00;;;;;;4185568;28;20038;-40
2024/03/31 13:21:01;;;;;;;12.45;8.77;;;19.00;65.90;;;;;;4185531;28;20059;-40
2024/03/31 13:23:40;;;;;;;9.77;8.85;;;19.00;65.90;;;;;;4169164;28;20051;-40
2024/03/31 13:26:22;;;;;;;10.30;9.30;;;19.00;66.00;;;;;;4186099;28;20051;-40
2024/03/31 13:29:00;;;;;;;10.45;8.45;;;19.00;66.20;;;;;;4185993;28;20461;-40
2024/03/31 13:31:41;;;;;;;13.18;9.52;;;18.90;66.50;;;;;;4186194;28;20205;-40
2024/03/31 13:34:21;;;;;;;11.30;10.20;;;18.90;66.90;;;;;;4174413;28;20044;-40
2024/03/31 13:37:00;;;;;;;12.63;9.65;;;18.90;67.10;;;;;;4190679;28;20051;-40
2024/03/31 13:39:40;;;;;;;12.27;11.00;;;19.00;67.30;;;;;;4185378;28;20149;-40
2024/03/31 13:42:20;;;;;;;12.60;10.75;;;19.00;67.10;;;;;;4183999;28;20051;-40
2024/03/31 13:45:01;;;;;;;13.48;10.45;;;19.00;67.00;;;;;;4184069;28;20144;-40
2024/03/31 13:47:40;;;;;;;12.43;10.25;;;19.10;66.60;;;;;;4167093;28;20126;-40
2024/03/31 13:50:20;;;;;;;14.63;11.43;;;19.00;67.20;;;;;;4184934;28;20055;-40
2024/03/31 13:53:00;;;;;;;14.48;11.00;;;19.00;67.50;;;;;;4185397;28;20058;-40
2024/03/31 13:55:40;;;;;;;12.85;10.10;;;19.00;67.70;;;;;;4184619;28;20163;-40